Time;durP1;ratioP1;P1;durP2;ratioP2;P2;SDS_P1;SDS_P2;PMS_P1;PMS_P2;Temp;Humidity;BMP_temperature;BMP_pressure;BME280_temperature;BME280_humidity;BME280_pressure;Samples;Min_cycle;Max_cycle;Signal;HPM_P1;HPM_P2
2021/11/02 00:00:11;;;;;;;2.45;1.35;;;;;;;;;;5011079;28;20190;-84
2021/11/02 00:02:37;;;;;;;2.95;1.50;;;;;;;;;;5045575;28;20201;-85
2021/11/02 00:05:03;;;;;;;2.10;1.35;;;;;;;;;;5041953;28;20174;-85
2021/11/02 00:07:29;;;;;;;4.20;1.30;;;;;;;;;;5046155;28;20309;-85
2021/11/02 00:09:56;;;;;;;3.40;1.55;;;;;;;;;;5043968;28;20643;-85
2021/11/02 00:12:22;;;;;;;4.18;1.65;;;;;;;;;;5049994;28;20263;-85
2021/11/02 00:14:48;;;;;;;4.07;1.75;;;;;;;;;;5040814;28;20177;-85
2021/11/02 00:17:16;;;;;;;2.78;1.13;;;;;;;;;;5064384;28;20193;-85
2021/11/02 00:19:46;;;;;;;3.78;1.55;;;;;;;;;;5035113;28;20239;-85
2021/11/02 00:22:16;;;;;;;4.47;1.48;;;;;;;;;;5042856;28;20182;-84
2021/11/02 00:27:18;;;;;;;1.50;1.15;;;;;;;;;;5038088;28;20268;-84
2021/11/02 00:29:44;;;;;;;2.42;1.30;;;;;;;;;;5051795;28;20176;-85
2021/11/02 00:32:11;;;;;;;2.83;1.20;;;;;;;;;;5069156;28;20165;-85
2021/11/02 00:34:37;;;;;;;3.83;1.52;;;;;;;;;;5041059;28;20198;-85
2021/11/02 00:37:03;;;;;;;3.25;1.10;;;;;;;;;;5031949;28;20183;-85
2021/11/02 00:39:29;;;;;;;1.73;1.20;;;;;;;;;;5039616;28;20185;-84
2021/11/02 00:41:55;;;;;;;6.32;1.50;;;;;;;;;;5033928;28;20182;-85
2021/11/02 00:44:22;;;;;;;2.63;1.00;;;;;;;;;;5063783;28;20185;-85
2021/11/02 00:46:50;;;;;;;1.50;1.23;;;;;;;;;;5068390;28;20280;-85
2021/11/02 00:49:17;;;;;;;2.75;1.10;;;;;;;;;;5039640;28;20182;-85
2021/11/02 00:51:44;;;;;;;1.85;1.50;;;;;;;;;;5046018;28;20193;-85
2021/11/02 00:54:10;;;;;;;2.35;1.20;;;;;;;;;;5047420;28;20643;-85
2021/11/02 00:56:36;;;;;;;2.25;1.10;;;;;;;;;;5036923;28;20187;-85
2021/11/02 00:59:02;;;;;;;6.20;1.60;;;;;;;;;;5075449;28;20281;-85
2021/11/02 01:01:28;;;;;;;4.50;1.42;;;;;;;;;;5036950;28;20480;-86
2021/11/02 01:03:54;;;;;;;3.83;1.17;;;;;;;;;;5043205;28;20178;-85
2021/11/02 01:06:20;;;;;;;1.90;1.03;;;;;;;;;;5040200;28;20466;-85
2021/11/02 01:08:46;;;;;;;1.85;1.20;;;;;;;;;;5052066;28;20449;-86
2021/11/02 01:11:13;;;;;;;3.33;1.40;;;;;;;;;;5051973;28;20177;-86
2021/11/02 01:13:39;;;;;;;2.88;1.45;;;;;;;;;;5033677;28;20454;-85
2021/11/02 01:16:05;;;;;;;2.53;1.20;;;;;;;;;;5038464;28;20190;-85
2021/11/02 01:18:31;;;;;;;5.50;1.17;;;;;;;;;;5044352;28;20197;-85
2021/11/02 01:20:57;;;;;;;4.95;1.30;;;;;;;;;;5038460;28;20674;-85
2021/11/02 01:23:24;;;;;;;5.55;2.15;;;;;;;;;;5039354;28;20187;-86
2021/11/02 01:25:50;;;;;;;4.45;1.00;;;;;;;;;;5039992;28;20212;-86
2021/11/02 01:28:16;;;;;;;7.03;1.35;;;;;;;;;;5035214;28;20218;-85
2021/11/02 01:30:42;;;;;;;1.63;1.20;;;;;;;;;;5039616;28;20190;-85
2021/11/02 01:33:08;;;;;;;2.08;1.30;;;;;;;;;;5041355;28;20185;-85
2021/11/02 01:35:34;;;;;;;3.42;1.00;;;;;;;;;;5041585;28;20200;-85
2021/11/02 01:38:03;;;;;;;1.70;1.00;;;;;;;;;;5071776;28;20205;-85
2021/11/02 01:40:29;;;;;;;4.13;1.17;;;;;;;;;;5042114;28;20189;-85
2021/11/02 01:42:55;;;;;;;2.47;1.10;;;;;;;;;;5036573;28;20178;-86
2021/11/02 01:45:26;;;;;;;5.20;1.45;;;;;;;;;;5036577;28;20234;-85
2021/11/02 01:47:53;;;;;;;2.58;1.40;;;;;;;;;;5039860;28;20273;-84
2021/11/02 01:50:19;;;;;;;2.28;1.02;;;;;;;;;;5080176;28;20171;-84
2021/11/02 01:52:45;;;;;;;3.67;1.77;;;;;;;;;;5032539;28;20469;-86
2021/11/02 01:55:12;;;;;;;2.78;1.35;;;;;;;;;;5060919;28;20178;-84
2021/11/02 01:57:42;;;;;;;11.38;1.60;;;;;;;;;;5046687;28;20228;-86
2021/11/02 02:00:10;;;;;;;6.40;1.40;;;;;;;;;;5037386;28;20235;-85
2021/11/02 02:02:48;;;;;;;4.30;1.45;;;;;;;;;;5047908;28;20173;-84
2021/11/02 02:05:17;;;;;;;2.70;1.25;;;;;;;;;;5042340;28;20375;-85
2021/11/02 02:07:43;;;;;;;2.05;1.23;;;;;;;;;;5042890;28;20185;-85
2021/11/02 02:10:27;;;;;;;11.67;1.77;;;;;;;;;;5039704;28;20216;-83
2021/11/02 02:13:01;;;;;;;8.10;1.52;;;;;;;;;;5044737;28;20466;-85
2021/11/02 02:15:34;;;;;;;2.75;1.35;;;;;;;;;;5042622;28;20311;-85
2021/11/02 02:18:00;;;;;;;2.90;1.17;;;;;;;;;;5054118;28;20247;-85
2021/11/02 02:20:41;;;;;;;3.20;1.20;;;;;;;;;;5034015;28;20174;-85
2021/11/02 02:23:17;;;;;;;2.35;0.90;;;;;;;;;;5076391;28;20413;-84
2021/11/02 02:26:06;;;;;;;2.03;1.13;;;;;;;;;;5041329;28;20239;-85
2021/11/02 02:28:35;;;;;;;4.97;1.30;;;;;;;;;;5041092;28;20181;-84
2021/11/02 02:31:03;;;;;;;1.88;1.10;;;;;;;;;;5039171;28;20246;-83
2021/11/02 02:33:30;;;;;;;4.35;1.63;;;;;;;;;;5042388;28;20186;-84
2021/11/02 02:35:57;;;;;;;1.48;1.10;;;;;;;;;;5054189;28;20909;-85
2021/11/02 02:38:24;;;;;;;5.32;1.35;;;;;;;;;;5047655;28;20177;-83
2021/11/02 02:40:51;;;;;;;3.00;1.50;;;;;;;;;;5041526;28;20178;-82
2021/11/02 02:43:18;;;;;;;1.65;1.40;;;;;;;;;;5043780;28;20191;-84
2021/11/02 02:45:45;;;;;;;2.25;1.02;;;;;;;;;;5048963;28;20232;-84
2021/11/02 02:48:12;;;;;;;1.90;1.30;;;;;;;;;;5039253;28;20188;-84
2021/11/02 02:50:38;;;;;;;3.80;1.10;;;;;;;;;;5041884;28;20193;-85
2021/11/02 02:53:05;;;;;;;2.42;1.10;;;;;;;;;;5077417;28;20166;-83
2021/11/02 02:55:32;;;;;;;6.32;1.63;;;;;;;;;;5043451;28;20185;-84
2021/11/02 02:57:58;;;;;;;3.50;1.40;;;;;;;;;;5040674;28;20191;-84
2021/11/02 03:00:25;;;;;;;2.20;0.95;;;;;;;;;;5038895;28;20178;-84
2021/11/02 03:02:52;;;;;;;3.05;1.40;;;;;;;;;;5037621;28;20182;-84
2021/11/02 03:05:19;;;;;;;7.00;1.20;;;;;;;;;;5045037;28;20174;-84
2021/11/02 03:07:45;;;;;;;3.17;1.00;;;;;;;;;;5044917;28;20201;-85
2021/11/02 03:10:12;;;;;;;2.65;1.00;;;;;;;;;;5043037;28;20175;-83
2021/11/02 03:12:42;;;;;;;1.85;1.02;;;;;;;;;;5049592;28;20249;-84
2021/11/02 03:18:19;;;;;;;2.95;1.13;;;;;;;;;;5048632;28;20666;-84
2021/11/02 03:56:32;;;;;;;2.25;0.93;;;;;;;;;;5043551;28;20456;-83
2021/11/02 04:29:20;;;;;;;1.80;1.40;;;;;;;;;;5041494;28;20177;-82
2021/11/02 04:34:56;;;;;;;3.90;1.35;;;;;;;;;;5032420;28;20198;-83
2021/11/02 05:47:32;;;;;;;2.58;1.05;;;;;;;;;;5003134;28;20217;-82
2021/11/02 05:50:25;;;;;;;3.80;1.20;;;;;;;;;;4992263;28;20171;-81
2021/11/02 05:58:22;;;;;;;2.05;0.90;;;;;;;;;;5003358;28;20233;-82
2021/11/02 06:00:58;;;;;;;1.67;1.10;;;;;;;;;;4987210;28;20187;-81
2021/11/02 06:11:05;;;;;;;2.95;1.20;;;;;;;;;;5003993;28;20175;-81
2021/11/02 06:27:58;;;;;;;1.52;1.00;;;;;;;;;;5003637;28;20222;-82
2021/11/02 06:30:40;;;;;;;2.72;1.40;;;;;;;;;;5002201;28;20217;-81
2021/11/02 06:33:16;;;;;;;2.40;1.20;;;;;;;;;;4984095;28;20222;-82
2021/11/02 06:47:07;;;;;;;2.55;1.30;;;;;;;;;;4926666;29;20222;-80
2021/11/02 06:52:51;;;;;;;4.70;1.42;;;;;;;;;;4926990;29;20218;-81
2021/11/02 07:19:39;;;;;;;2.00;1.30;;;;;;;;;;5012249;28;20186;-81
2021/11/02 08:45:39;;;;;;;2.13;1.10;;;;;;;;;;5035694;28;20232;-81
2021/11/02 08:48:01;;;;;;;1.52;1.38;;;;;;;;;;5028246;28;20202;-83
2021/11/02 08:50:31;;;;;;;1.77;1.10;;;;;;;;;;5024588;28;20184;-82
2021/11/02 08:52:57;;;;;;;1.63;0.93;;;;;;;;;;5030993;28;20566;-82
2021/11/02 08:55:23;;;;;;;1.13;1.00;;;;;;;;;;5034649;28;20337;-83
2021/11/02 08:57:52;;;;;;;1.10;0.90;;;;;;;;;;5034382;28;20178;-80
2021/11/02 09:00:18;;;;;;;1.70;1.10;;;;;;;;;;5014339;28;20210;-82
2021/11/02 09:02:49;;;;;;;1.70;1.30;;;;;;;;;;5022943;28;20186;-82
2021/11/02 09:05:19;;;;;;;1.50;1.25;;;;;;;;;;5019704;28;20174;-82
2021/11/02 09:07:50;;;;;;;2.28;1.00;;;;;;;;;;5045639;28;20209;-81
2021/11/02 09:10:20;;;;;;;0.85;0.82;;;;;;;;;;5039371;28;20179;-82
2021/11/02 09:12:47;;;;;;;1.50;1.10;;;;;;;;;;5035436;28;20234;-80
2021/11/02 09:15:14;;;;;;;2.97;1.38;;;;;;;;;;5037348;28;20178;-83
2021/11/02 09:17:44;;;;;;;1.52;0.90;;;;;;;;;;5050640;28;20259;-82
2021/11/02 09:20:11;;;;;;;7.07;1.23;;;;;;;;;;5045271;28;20181;-85
2021/11/02 09:22:37;;;;;;;1.75;1.25;;;;;;;;;;5039221;28;20285;-83
2021/11/02 09:25:03;;;;;;;2.08;1.08;;;;;;;;;;5040428;28;20190;-81
2021/11/02 09:27:30;;;;;;;1.58;0.90;;;;;;;;;;5069389;28;20206;-80
2021/11/02 09:29:58;;;;;;;1.40;0.98;;;;;;;;;;5073161;28;20190;-83
2021/11/02 09:32:24;;;;;;;1.25;1.05;;;;;;;;;;5075285;28;20264;-82
2021/11/02 09:34:50;;;;;;;2.55;2.00;;;;;;;;;;5033233;28;20201;-81
2021/11/02 09:37:17;;;;;;;2.53;1.42;;;;;;;;;;5044785;28;20177;-82
2021/11/02 09:39:45;;;;;;;2.05;1.20;;;;;;;;;;5042831;28;20221;-81
2021/11/02 09:42:14;;;;;;;2.15;1.08;;;;;;;;;;5055621;28;20534;-82
2021/11/02 09:44:47;;;;;;;1.10;0.80;;;;;;;;;;5045551;28;20627;-83
2021/11/02 09:47:26;;;;;;;2.47;1.10;;;;;;;;;;5085605;28;20232;-81
2021/11/02 09:49:51;;;;;;;2.22;1.30;;;;;;;;;;5036149;28;20243;-81
2021/11/02 09:52:27;;;;;;;1.20;1.10;;;;;;;;;;5040642;28;20186;-81
2021/11/02 09:55:22;;;;;;;3.33;1.40;;;;;;;;;;5045414;28;20431;-81
2021/11/02 09:57:57;;;;;;;2.45;1.10;;;;;;;;;;4996601;28;20210;-81
2021/11/02 10:00:36;;;;;;;1.38;1.10;;;;;;;;;;5003563;28;20338;-81
2021/11/02 10:03:14;;;;;;;1.20;1.10;;;;;;;;;;5025933;28;20195;-81
2021/11/02 10:06:16;;;;;;;1.10;0.85;;;;;;;;;;5016732;28;20242;-81
2021/11/02 10:08:45;;;;;;;1.00;0.90;;;;;;;;;;4924513;29;20650;-83
2021/11/02 10:11:19;;;;;;;1.60;0.80;;;;;;;;;;4925949;29;20260;-80
2021/11/02 10:13:57;;;;;;;3.75;1.08;;;;;;;;;;4923212;29;20186;-84
2021/11/02 10:16:40;;;;;;;1.98;1.17;;;;;;;;;;4902088;29;20359;-81
2021/11/02 10:19:12;;;;;;;2.53;0.93;;;;;;;;;;4908160;29;20202;-82
2021/11/02 10:21:57;;;;;;;1.27;1.17;;;;;;;;;;4908652;29;20265;-82
2021/11/02 10:24:23;;;;;;;2.83;1.10;;;;;;;;;;4921996;29;20225;-81
2021/11/02 10:27:01;;;;;;;1.80;1.20;;;;;;;;;;4909507;29;20618;-82
2021/11/02 10:29:48;;;;;;;1.00;0.88;;;;;;;;;;4924433;29;20526;-82
2021/11/02 10:32:15;;;;;;;1.70;1.00;;;;;;;;;;4941747;29;20197;-82
2021/11/02 10:34:45;;;;;;;1.42;1.17;;;;;;;;;;4954827;28;20204;-85
2021/11/02 10:37:23;;;;;;;2.05;0.93;;;;;;;;;;4975962;28;20192;-83
2021/11/02 10:40:06;;;;;;;0.75;0.70;;;;;;;;;;4980145;28;20462;-83
2021/11/02 10:42:37;;;;;;;2.45;0.90;;;;;;;;;;4978130;28;20203;-82
2021/11/02 10:45:07;;;;;;;2.05;0.85;;;;;;;;;;5039865;28;20224;-82
2021/11/02 10:47:56;;;;;;;1.10;0.93;;;;;;;;;;5070834;28;20220;-82
2021/11/02 10:50:23;;;;;;;0.75;0.70;;;;;;;;;;5038793;28;20189;-82
2021/11/02 10:52:50;;;;;;;4.95;1.67;;;;;;;;;;5043821;28;20193;-84
2021/11/02 10:55:35;;;;;;;1.50;1.00;;;;;;;;;;5044132;28;20181;-80
2021/11/02 10:58:20;;;;;;;0.70;0.70;;;;;;;;;;5039841;28;20185;-82
2021/11/02 11:00:48;;;;;;;1.45;1.35;;;;;;;;;;5066420;28;20188;-82
2021/11/02 11:03:14;;;;;;;3.80;0.93;;;;;;;;;;5070138;28;20189;-80
2021/11/02 11:05:45;;;;;;;1.13;0.93;;;;;;;;;;5039083;28;20231;-82
2021/11/02 11:08:13;;;;;;;0.80;0.73;;;;;;;;;;5059244;28;20205;-82
2021/11/02 11:10:39;;;;;;;1.63;0.80;;;;;;;;;;5039608;28;20267;-82
2021/11/02 11:13:10;;;;;;;0.70;0.70;;;;;;;;;;5031066;28;20183;-82
2021/11/02 11:15:36;;;;;;;1.20;0.80;;;;;;;;;;5039751;28;20189;-82
2021/11/02 11:18:10;;;;;;;1.13;0.73;;;;;;;;;;5040625;28;20198;-82
2021/11/02 11:20:37;;;;;;;1.10;0.85;;;;;;;;;;5039533;28;20186;-81
2021/11/02 11:23:07;;;;;;;1.35;1.00;;;;;;;;;;5057233;28;20187;-83
2021/11/02 11:25:33;;;;;;;2.15;0.88;;;;;;;;;;5032965;28;20183;-82
2021/11/02 11:28:01;;;;;;;1.47;0.90;;;;;;;;;;5058916;28;20603;-82
2021/11/02 11:30:29;;;;;;;1.27;0.85;;;;;;;;;;5051514;28;20440;-83
2021/11/02 11:32:55;;;;;;;2.67;1.77;;;;;;;;;;5048109;28;20194;-83
2021/11/02 11:35:21;;;;;;;1.25;1.00;;;;;;;;;;5076286;28;20170;-82
2021/11/02 11:37:52;;;;;;;1.83;0.90;;;;;;;;;;5047514;28;20177;-82
2021/11/02 11:40:23;;;;;;;1.13;1.02;;;;;;;;;;5038018;28;20254;-82
2021/11/02 11:42:50;;;;;;;1.20;0.80;;;;;;;;;;5047397;28;20205;-80
2021/11/02 11:45:19;;;;;;;1.63;0.93;;;;;;;;;;5038880;28;20249;-80
2021/11/02 11:47:45;;;;;;;3.10;0.80;;;;;;;;;;5051780;28;20292;-81
2021/11/02 11:50:16;;;;;;;1.15;0.90;;;;;;;;;;5041692;28;20190;-81
2021/11/02 11:52:53;;;;;;;2.35;0.80;;;;;;;;;;5036591;28;20179;-80
2021/11/02 11:55:28;;;;;;;1.80;0.90;;;;;;;;;;5030602;28;20186;-82
2021/11/02 11:58:08;;;;;;;1.10;0.70;;;;;;;;;;5037941;28;20244;-81
2021/11/02 12:00:35;;;;;;;1.15;0.80;;;;;;;;;;5038009;28;20194;-81
2021/11/02 12:03:01;;;;;;;1.17;0.95;;;;;;;;;;5050962;28;20556;-81
2021/11/02 12:05:27;;;;;;;1.40;0.82;;;;;;;;;;5041571;28;20189;-80
2021/11/02 12:08:09;;;;;;;1.95;1.02;;;;;;;;;;5041233;28;20220;-82
2021/11/02 12:10:36;;;;;;;2.00;0.90;;;;;;;;;;5041654;28;20181;-82
2021/11/02 12:13:06;;;;;;;2.15;0.88;;;;;;;;;;5040479;28;20173;-82
2021/11/02 12:15:40;;;;;;;1.48;0.85;;;;;;;;;;5045506;28;20193;-81
2021/11/02 12:18:07;;;;;;;1.40;0.80;;;;;;;;;;5040432;28;20214;-79
2021/11/02 12:20:36;;;;;;;2.65;0.80;;;;;;;;;;5043211;28;20181;-81
2021/11/02 12:23:13;;;;;;;0.70;0.63;;;;;;;;;;5064852;28;20246;-81
2021/11/02 12:25:50;;;;;;;1.23;1.13;;;;;;;;;;5028083;28;20186;-81
2021/11/02 12:28:43;;;;;;;1.90;0.93;;;;;;;;;;5037538;28;20197;-80
2021/11/02 12:31:14;;;;;;;1.88;1.13;;;;;;;;;;5065426;28;20218;-81
2021/11/02 12:33:44;;;;;;;1.73;0.90;;;;;;;;;;5029309;28;20173;-82
2021/11/02 12:36:12;;;;;;;1.48;0.88;;;;;;;;;;5037253;28;20197;-80
2021/11/02 12:38:42;;;;;;;1.85;1.30;;;;;;;;;;5035100;28;20182;-81
2021/11/02 12:41:16;;;;;;;1.33;1.13;;;;;;;;;;5028995;28;20214;-81
2021/11/02 12:43:42;;;;;;;0.90;0.80;;;;;;;;;;5031709;28;20190;-80
2021/11/02 12:46:09;;;;;;;1.77;0.70;;;;;;;;;;5027300;28;20229;-81
2021/11/02 12:48:36;;;;;;;1.10;0.75;;;;;;;;;;5029320;28;20205;-80
2021/11/02 12:51:04;;;;;;;3.25;0.82;;;;;;;;;;5039793;28;20269;-81
2021/11/02 12:53:33;;;;;;;1.30;0.80;;;;;;;;;;5038415;28;20196;-81
2021/11/02 12:56:11;;;;;;;0.80;0.80;;;;;;;;;;5034934;28;20186;-81
2021/11/02 12:58:41;;;;;;;1.45;0.60;;;;;;;;;;5041541;28;20493;-83
2021/11/02 13:01:08;;;;;;;1.00;0.85;;;;;;;;;;5037473;28;20190;-79
2021/11/02 13:03:35;;;;;;;1.00;0.90;;;;;;;;;;5036427;28;20217;-77
2021/11/02 13:06:09;;;;;;;1.02;0.70;;;;;;;;;;5034412;28;20201;-77
2021/11/02 13:08:41;;;;;;;4.00;0.90;;;;;;;;;;5041007;28;20181;-77
2021/11/02 13:11:11;;;;;;;2.45;0.80;;;;;;;;;;5037371;28;20207;-77
2021/11/02 13:13:57;;;;;;;0.75;0.75;;;;;;;;;;5040400;28;20186;-77
2021/11/02 13:16:24;;;;;;;1.77;0.95;;;;;;;;;;5038480;28;20194;-78
2021/11/02 13:18:50;;;;;;;1.10;1.00;;;;;;;;;;5036911;28;20197;-77
2021/11/02 13:21:18;;;;;;;1.65;0.70;;;;;;;;;;5037068;28;20190;-77
2021/11/02 13:23:46;;;;;;;1.70;0.93;;;;;;;;;;5044552;28;20651;-78
2021/11/02 13:26:31;;;;;;;2.17;1.02;;;;;;;;;;5042991;28;20201;-77
2021/11/02 13:29:13;;;;;;;6.82;0.88;;;;;;;;;;5036721;28;20532;-77
2021/11/02 13:31:39;;;;;;;2.13;0.90;;;;;;;;;;5036805;28;20265;-77
2021/11/02 13:34:06;;;;;;;2.67;0.88;;;;;;;;;;5039727;28;20331;-77
2021/11/02 13:36:33;;;;;;;1.45;0.80;;;;;;;;;;5042152;28;20193;-77
2021/11/02 13:38:59;;;;;;;1.02;0.75;;;;;;;;;;5037374;28;20195;-77
2021/11/02 13:41:27;;;;;;;2.50;1.48;;;;;;;;;;5039443;28;20616;-77
2021/11/02 13:43:59;;;;;;;1.38;0.70;;;;;;;;;;5034970;28;20174;-77
2021/11/02 13:46:26;;;;;;;1.17;0.88;;;;;;;;;;5032140;28;20225;-77
2021/11/02 13:48:53;;;;;;;2.03;0.80;;;;;;;;;;5034387;28;20195;-77
2021/11/02 13:51:20;;;;;;;1.40;0.80;;;;;;;;;;5037668;28;20182;-77
2021/11/02 13:53:46;;;;;;;1.65;1.25;;;;;;;;;;5050758;28;20169;-77
2021/11/02 13:56:16;;;;;;;1.55;0.80;;;;;;;;;;5035999;28;20177;-76
2021/11/02 13:58:43;;;;;;;1.60;0.82;;;;;;;;;;5044985;28;20176;-77
2021/11/02 14:01:15;;;;;;;2.10;0.90;;;;;;;;;;5039853;28;20269;-77
2021/11/02 14:03:50;;;;;;;1.13;0.80;;;;;;;;;;5048334;28;20264;-77
2021/11/02 14:06:18;;;;;;;2.10;0.85;;;;;;;;;;5038705;28;20208;-77
2021/11/02 14:08:45;;;;;;;0.90;0.70;;;;;;;;;;5054971;28;20201;-77
2021/11/02 14:11:25;;;;;;;3.50;1.60;;;;;;;;;;5047705;28;20176;-77
2021/11/02 14:13:52;;;;;;;1.00;0.90;;;;;;;;;;5043138;28;20180;-78
2021/11/02 14:16:37;;;;;;;0.90;0.90;;;;;;;;;;5039725;28;20336;-77
2021/11/02 14:19:04;;;;;;;1.70;1.13;;;;;;;;;;5041030;28;20225;-77
2021/11/02 14:21:56;;;;;;;1.67;0.90;;;;;;;;;;5033215;28;20182;-77
2021/11/02 14:24:40;;;;;;;0.80;0.80;;;;;;;;;;5033637;28;20218;-77
2021/11/02 14:27:11;;;;;;;1.67;0.80;;;;;;;;;;5035540;28;20206;-77
2021/11/02 14:29:47;;;;;;;1.83;1.10;;;;;;;;;;5039847;28;20190;-77
2021/11/02 14:32:34;;;;;;;1.40;0.90;;;;;;;;;;5039919;28;20546;-77
2021/11/02 14:35:00;;;;;;;2.28;0.90;;;;;;;;;;5068092;28;20184;-77
2021/11/02 14:37:27;;;;;;;1.98;0.95;;;;;;;;;;5039530;28;20222;-77
2021/11/02 14:39:54;;;;;;;2.58;0.88;;;;;;;;;;5037923;28;20225;-78
2021/11/02 14:42:39;;;;;;;2.05;1.25;;;;;;;;;;5039247;28;20193;-77
2021/11/02 14:45:09;;;;;;;2.00;1.13;;;;;;;;;;5042694;28;20212;-78
2021/11/02 14:47:35;;;;;;;3.53;1.55;;;;;;;;;;5041828;28;20205;-77
2021/11/02 14:50:02;;;;;;;1.90;1.65;;;;;;;;;;5046033;28;20214;-77
2021/11/02 14:52:28;;;;;;;3.97;1.25;;;;;;;;;;5041710;28;20262;-77
2021/11/02 14:54:54;;;;;;;1.48;1.10;;;;;;;;;;5038481;28;20259;-77
2021/11/02 14:57:20;;;;;;;3.72;1.20;;;;;;;;;;5038811;28;20661;-77
2021/11/02 14:59:47;;;;;;;2.20;1.50;;;;;;;;;;5043652;28;20179;-77
2021/11/02 15:02:16;;;;;;;3.05;1.30;;;;;;;;;;5036220;28;20430;-77
2021/11/02 15:04:42;;;;;;;2.65;1.20;;;;;;;;;;5036214;28;20197;-77
2021/11/02 15:07:08;;;;;;;1.30;1.20;;;;;;;;;;5034986;28;20198;-77
2021/11/02 15:09:37;;;;;;;2.50;1.10;;;;;;;;;;5040931;28;20612;-77
2021/11/02 15:12:04;;;;;;;3.28;1.27;;;;;;;;;;5036454;28;20183;-77
2021/11/02 15:14:32;;;;;;;2.97;1.30;;;;;;;;;;5051059;28;20694;-77
2021/11/02 15:17:03;;;;;;;1.15;1.02;;;;;;;;;;5045499;28;20181;-78
2021/11/02 15:19:30;;;;;;;9.52;1.38;;;;;;;;;;5042513;28;20190;-77
2021/11/02 15:21:58;;;;;;;1.88;1.08;;;;;;;;;;5040763;28;20191;-77
2021/11/02 15:24:24;;;;;;;1.83;0.88;;;;;;;;;;5071217;28;20472;-77
2021/11/02 15:26:50;;;;;;;1.00;0.90;;;;;;;;;;5041407;28;20232;-77
2021/11/02 15:29:16;;;;;;;4.43;0.80;;;;;;;;;;5041500;28;20448;-77
2021/11/02 15:31:53;;;;;;;1.83;0.80;;;;;;;;;;5067902;28;20528;-77
2021/11/02 15:34:19;;;;;;;1.77;1.00;;;;;;;;;;5035646;28;20182;-79
2021/11/02 15:36:45;;;;;;;2.30;0.97;;;;;;;;;;5036720;28;20193;-77
2021/11/02 15:39:11;;;;;;;4.80;1.27;;;;;;;;;;5057713;28;20444;-76
2021/11/02 15:41:38;;;;;;;1.23;0.93;;;;;;;;;;5048618;28;20177;-77
2021/11/02 15:44:08;;;;;;;3.28;0.80;;;;;;;;;;5040828;28;20638;-76
2021/11/02 15:46:35;;;;;;;1.55;1.00;;;;;;;;;;5041228;28;20225;-77
2021/11/02 15:49:04;;;;;;;1.05;0.90;;;;;;;;;;5035959;28;20255;-77
2021/11/02 15:51:32;;;;;;;4.43;1.20;;;;;;;;;;5074056;28;20178;-77
2021/11/02 15:53:59;;;;;;;4.80;1.65;;;;;;;;;;5038064;28;20742;-77
2021/11/02 15:56:25;;;;;;;2.00;1.00;;;;;;;;;;5033120;28;20183;-77
2021/11/02 15:58:57;;;;;;;9.82;2.10;;;;;;;;;;5050601;28;20201;-77
2021/11/02 16:01:31;;;;;;;1.38;0.90;;;;;;;;;;5033685;28;20717;-77
2021/11/02 16:04:07;;;;;;;1.60;1.27;;;;;;;;;;5032211;28;20265;-77
2021/11/02 16:06:33;;;;;;;1.92;1.27;;;;;;;;;;5031307;28;20469;-76
2021/11/02 16:09:01;;;;;;;1.40;1.20;;;;;;;;;;5075718;28;20281;-76
2021/11/02 16:11:27;;;;;;;3.60;1.40;;;;;;;;;;5039211;28;20170;-76
2021/11/02 16:13:54;;;;;;;3.63;1.40;;;;;;;;;;5043888;28;20185;-76
2021/11/02 16:16:20;;;;;;;1.35;1.25;;;;;;;;;;5038475;28;20193;-76
2021/11/02 16:18:46;;;;;;;2.42;1.08;;;;;;;;;;5031081;28;20217;-76
2021/11/02 16:21:12;;;;;;;2.75;1.40;;;;;;;;;;5039709;28;20185;-76
2021/11/02 16:23:41;;;;;;;4.50;1.85;;;;;;;;;;5044748;28;20249;-76
2021/11/02 16:26:17;;;;;;;1.98;1.48;;;;;;;;;;5043270;28;20192;-76
2021/11/02 16:28:43;;;;;;;7.45;1.50;;;;;;;;;;5053555;28;20181;-76
2021/11/02 16:31:10;;;;;;;2.53;1.42;;;;;;;;;;5042780;28;20183;-76
2021/11/02 16:33:44;;;;;;;3.03;1.55;;;;;;;;;;5038979;28;20193;-76
2021/11/02 16:36:29;;;;;;;2.03;1.40;;;;;;;;;;5047975;28;20192;-76
2021/11/02 16:38:56;;;;;;;2.45;1.27;;;;;;;;;;5033807;28;20177;-76
2021/11/02 16:41:26;;;;;;;1.60;1.50;;;;;;;;;;5048360;28;20165;-76
2021/11/02 16:43:56;;;;;;;3.33;1.60;;;;;;;;;;5038546;28;20239;-76
2021/11/02 16:46:22;;;;;;;4.28;1.90;;;;;;;;;;5036616;28;20228;-76
2021/11/02 16:48:49;;;;;;;5.97;2.10;;;;;;;;;;5037125;28;20209;-76
2021/11/02 16:51:18;;;;;;;2.70;1.53;;;;;;;;;;5038704;28;20603;-76
2021/11/02 16:53:44;;;;;;;2.55;2.05;;;;;;;;;;5040349;28;20452;-76
2021/11/02 16:56:24;;;;;;;4.35;2.65;;;;;;;;;;5040553;28;20193;-76
2021/11/02 16:58:52;;;;;;;1.80;1.42;;;;;;;;;;5036199;28;20189;-76
2021/11/02 17:01:23;;;;;;;5.20;3.05;;;;;;;;;;5038077;28;20186;-76
2021/11/02 17:03:50;;;;;;;3.72;2.10;;;;;;;;;;5036986;28;20190;-76
2021/11/02 17:06:18;;;;;;;2.55;2.20;;;;;;;;;;5042072;28;20725;-76
2021/11/02 17:08:48;;;;;;;4.25;3.80;;;;;;;;;;5035759;28;20173;-76
2021/11/02 17:11:21;;;;;;;3.17;2.70;;;;;;;;;;5038134;28;20181;-76
2021/11/02 17:13:48;;;;;;;4.22;3.55;;;;;;;;;;5036497;28;20189;-76
2021/11/02 17:16:15;;;;;;;5.63;3.90;;;;;;;;;;5044865;28;20192;-76
2021/11/02 17:18:54;;;;;;;9.60;4.72;;;;;;;;;;5046522;28;20728;-76
2021/11/02 17:21:21;;;;;;;5.05;4.50;;;;;;;;;;5040153;28;20212;-76
2021/11/02 17:23:48;;;;;;;6.50;4.05;;;;;;;;;;5045324;28;20177;-76
2021/11/02 17:26:15;;;;;;;7.50;3.45;;;;;;;;;;5044578;28;20198;-76
2021/11/02 17:28:45;;;;;;;6.35;3.60;;;;;;;;;;5032845;28;20187;-76
2021/11/02 17:31:11;;;;;;;6.25;3.45;;;;;;;;;;5063093;28;20262;-76
2021/11/02 17:33:37;;;;;;;8.48;2.55;;;;;;;;;;5040503;28;20193;-77
2021/11/02 17:36:05;;;;;;;6.35;2.88;;;;;;;;;;5062907;28;20182;-76
2021/11/02 17:38:31;;;;;;;2.75;2.10;;;;;;;;;;5036406;28;20174;-76
2021/11/02 17:41:00;;;;;;;3.17;2.50;;;;;;;;;;5055284;28;20178;-76
2021/11/02 17:43:26;;;;;;;5.72;2.45;;;;;;;;;;5042410;28;20187;-76
2021/11/02 17:45:53;;;;;;;7.60;4.25;;;;;;;;;;5047091;28;20230;-76
2021/11/02 17:48:20;;;;;;;3.88;3.33;;;;;;;;;;5065080;28;20197;-76
2021/11/02 17:50:47;;;;;;;4.70;3.88;;;;;;;;;;5053302;28;20231;-76
2021/11/02 17:53:13;;;;;;;4.88;3.92;;;;;;;;;;5049805;28;20172;-76
2021/11/02 17:55:39;;;;;;;6.30;4.03;;;;;;;;;;5043565;28;20249;-76
2021/11/02 17:58:05;;;;;;;7.65;4.18;;;;;;;;;;5040256;28;20221;-76
2021/11/02 18:00:31;;;;;;;5.15;3.92;;;;;;;;;;5066198;28;20182;-76
2021/11/02 18:02:58;;;;;;;4.60;3.67;;;;;;;;;;5043510;28;20619;-75
2021/11/02 18:05:25;;;;;;;8.52;4.40;;;;;;;;;;5041429;28;20193;-76
2021/11/02 18:07:51;;;;;;;6.47;3.50;;;;;;;;;;5039255;28;20208;-76
2021/11/02 18:10:18;;;;;;;6.35;3.58;;;;;;;;;;5038587;28;20206;-76
2021/11/02 18:12:44;;;;;;;6.15;3.25;;;;;;;;;;5043187;28;20674;-76
2021/11/02 18:15:11;;;;;;;7.68;4.63;;;;;;;;;;5039193;28;20182;-76
2021/11/02 18:17:39;;;;;;;5.57;3.38;;;;;;;;;;5049430;28;20192;-76
2021/11/02 18:20:06;;;;;;;5.40;3.17;;;;;;;;;;5039318;28;20182;-76
2021/11/02 18:22:32;;;;;;;5.25;3.60;;;;;;;;;;5043599;28;20208;-76
2021/11/02 18:24:58;;;;;;;7.35;5.03;;;;;;;;;;5039603;28;20892;-75
2021/11/02 18:27:25;;;;;;;7.38;4.72;;;;;;;;;;5065864;28;20757;-75
2021/11/02 18:29:51;;;;;;;7.47;4.70;;;;;;;;;;5044110;28;20186;-76
2021/11/02 18:32:18;;;;;;;5.25;4.28;;;;;;;;;;5045010;28;20265;-76
2021/11/02 18:34:45;;;;;;;9.45;4.43;;;;;;;;;;5036886;28;20766;-76
2021/11/02 18:37:12;;;;;;;11.13;4.90;;;;;;;;;;5030927;28;20213;-76
2021/11/02 18:39:39;;;;;;;8.63;6.05;;;;;;;;;;5034259;28;20241;-76
2021/11/02 18:42:06;;;;;;;10.35;7.05;;;;;;;;;;5042523;28;20317;-76
2021/11/02 18:44:32;;;;;;;7.63;5.22;;;;;;;;;;5034397;28;20186;-75
2021/11/02 18:46:58;;;;;;;6.65;6.05;;;;;;;;;;5052201;28;20201;-76
2021/11/02 18:49:25;;;;;;;8.10;6.95;;;;;;;;;;5040774;28;20630;-76
2021/11/02 18:51:51;;;;;;;9.32;8.32;;;;;;;;;;5031591;28;20179;-76
2021/11/02 18:54:18;;;;;;;10.30;8.50;;;;;;;;;;5036377;28;20209;-76
2021/11/02 18:56:44;;;;;;;9.63;7.32;;;;;;;;;;5032294;28;20189;-76
2021/11/02 18:59:11;;;;;;;11.32;8.55;;;;;;;;;;5048260;28;20185;-76
2021/11/02 19:01:40;;;;;;;9.32;7.40;;;;;;;;;;5035633;28;20186;-76
2021/11/02 19:04:07;;;;;;;9.98;8.32;;;;;;;;;;5031838;28;20180;-75
2021/11/02 19:06:34;;;;;;;10.32;9.30;;;;;;;;;;5043364;28;20213;-75
2021/11/02 19:09:00;;;;;;;13.50;9.80;;;;;;;;;;5051013;28;20182;-76
2021/11/02 19:11:26;;;;;;;12.40;9.93;;;;;;;;;;5051737;28;20642;-76
2021/11/02 19:13:52;;;;;;;12.90;10.23;;;;;;;;;;5039364;28;20188;-76
2021/11/02 19:16:18;;;;;;;14.32;10.10;;;;;;;;;;5034255;28;20277;-75
2021/11/02 19:18:46;;;;;;;14.82;12.00;;;;;;;;;;5030651;28;20201;-76
2021/11/02 19:21:12;;;;;;;14.25;9.93;;;;;;;;;;5053265;28;20182;-76
2021/11/02 19:23:38;;;;;;;12.63;9.60;;;;;;;;;;5042445;28;20201;-75
2021/11/02 19:26:05;;;;;;;13.32;10.25;;;;;;;;;;5046765;28;20204;-75
2021/11/02 19:28:31;;;;;;;13.88;9.90;;;;;;;;;;5046897;28;20185;-76
2021/11/02 19:30:57;;;;;;;10.45;9.30;;;;;;;;;;5046434;28;20220;-75
2021/11/02 19:33:23;;;;;;;16.97;9.43;;;;;;;;;;5040186;28;20232;-76
2021/11/02 19:35:49;;;;;;;16.98;12.38;;;;;;;;;;5034037;28;20426;-75
2021/11/02 19:38:15;;;;;;;17.58;12.77;;;;;;;;;;5048272;28;20205;-75
2021/11/02 19:40:42;;;;;;;18.38;14.68;;;;;;;;;;5035039;28;20187;-75
2021/11/02 19:43:08;;;;;;;28.77;22.08;;;;;;;;;;5036909;28;20186;-75
2021/11/02 19:45:34;;;;;;;30.83;19.73;;;;;;;;;;5046184;28;20790;-75
2021/11/02 19:48:01;;;;;;;26.30;19.15;;;;;;;;;;5038648;28;20205;-75